»·PEaware :: N612PD KSMO-KSNA

N612PD :: KSMO-KSNA

FLIGHT INFORMATION

Flight Status: Arrived
Operator: Privately registered:
United States
More flights under this callsign
Pilot: Shane T. (23547)
Aircraft: CESSNA 172 SKYHAWK
(C172)
More flights by this aircraft type
Origin: KSMO Santa Monica Mun
United States
Destination: KSNA John Wayne-Orange Co
United States
More flights between these airports :: More routes between these airports
Route: +SMO SMO125 V64 SLI+
File this flight plan on PilotEdge
Remarks:
Altitude:
(Current/Filed)
4,000ft
Speed:
(Current/Filed)
120kts
Departed: 01-Dec-20 02:34 PM
Arrived: 01-Dec-20 03:05 PM
Distance/Time
Traveled:
36nm/0:31
Distance/Time
To Go:
Arrived

Flight Plot

Page will automatically refresh every two minutes.


Map Options




Map Legend


Flown Route
Filed Route
Departure Airport
Arrival Airport
Navaid (VOR, NDB)
Fix

Horizontal Profiles

Position Reports

Time Latitude Longitude Heading Altitude Ground
Speed
01-Dec-20 14:09 34.013265 -118.451604 319 131ft 0kts
01-Dec-20 14:10 34.013265 -118.451604 319 131ft 0kts
01-Dec-20 14:11 34.013265 -118.451604 319 131ft 0kts
01-Dec-20 14:12 34.013265 -118.451604 319 131ft 0kts
01-Dec-20 14:13 34.013265 -118.451604 319 131ft 0kts
01-Dec-20 14:14 34.013265 -118.451604 319 131ft 0kts
01-Dec-20 14:15 34.013265 -118.451604 319 131ft 0kts
01-Dec-20 14:16 34.013265 -118.451604 319 131ft 0kts
01-Dec-20 14:17 34.013265 -118.451604 319 131ft 0kts
01-Dec-20 14:18 34.013265 -118.451604 319 131ft 0kts
01-Dec-20 14:19 34.013265 -118.451604 319 131ft 0kts
01-Dec-20 14:20 34.013265 -118.451604 319 131ft 0kts
01-Dec-20 14:21 34.013265 -118.451604 319 131ft 0kts
01-Dec-20 14:22 34.013265 -118.451604 319 131ft 0kts
01-Dec-20 14:23 34.013265 -118.451604 319 131ft 0kts
01-Dec-20 14:24 34.013265 -118.451604 319 131ft 0kts
01-Dec-20 14:25 34.013265 -118.451604 319 131ft 0kts
01-Dec-20 14:26 34.013398 -118.451698 329 132ft 7kts
01-Dec-20 14:27 34.013834 -118.452593 43 132ft 21kts
01-Dec-20 14:28 34.017625 -118.448054 50 153ft 15kts
01-Dec-20 14:29 34.018451 -118.447286 29 157ft 0kts
01-Dec-20 14:30 34.018456 -118.447283 29 157ft 0kts
01-Dec-20 14:31 34.018456 -118.447283 29 157ft 0kts
01-Dec-20 14:32 34.018575 -118.447057 71 158ft 6kts
01-Dec-20 14:33 34.012625 -118.454919 226 343ft 78kts
01-Dec-20 14:34 33.995777 -118.471817 216 1217ft 80kts
01-Dec-20 14:35 33.983718 -118.491434 261 2061ft 77kts
01-Dec-20 14:36 33.980504 -118.517048 261 2849ft 78kts
01-Dec-20 14:38 33.977511 -118.543058 270 3580ft 79kts
01-Dec-20 14:39 33.993890 -118.540089 84 4016ft 112kts
01-Dec-20 14:40 33.995570 -118.500495 113 4009ft 121kts
01-Dec-20 14:41 33.967763 -118.482794 161 4013ft 113kts
01-Dec-20 14:42 33.938191 -118.469306 161 4013ft 113kts
01-Dec-20 14:43 33.908727 -118.455855 161 4014ft 112kts
01-Dec-20 14:44 33.879466 -118.442412 161 4016ft 112kts
01-Dec-20 14:45 33.850162 -118.428839 161 4018ft 113kts
01-Dec-20 14:46 33.820741 -118.415101 161 4021ft 113kts
01-Dec-20 14:47 33.791305 -118.401250 161 4023ft 113kts
01-Dec-20 14:48 33.761905 -118.387313 161 4026ft 114kts
01-Dec-20 14:49 33.745267 -118.355497 112 4027ft 118kts
01-Dec-20 14:50 33.733699 -118.318454 112 4027ft 118kts
01-Dec-20 14:51 33.722198 -118.281349 112 4024ft 118kts
01-Dec-20 14:52 33.714970 -118.243407 83 4022ft 118kts
01-Dec-20 14:53 33.720055 -118.204263 82 4019ft 118kts
01-Dec-20 14:54 33.725266 -118.165485 82 4016ft 117kts
01-Dec-20 14:55 33.730556 -118.126734 82 4013ft 116kts
01-Dec-20 14:56 33.735823 -118.088389 82 4010ft 116kts
01-Dec-20 14:56 33.740192 -118.056597 82 4009ft 115kts
01-Dec-20 14:58 33.746343 -118.012226 82 4009ft 115kts
01-Dec-20 14:58 33.750131 -117.980284 89 3977ft 115kts
01-Dec-20 14:59 33.743389 -117.943073 108 3391ft 118kts
01-Dec-20 15:00 33.732034 -117.906704 117 2418ft 113kts
01-Dec-20 15:01 33.718069 -117.875026 124 1603ft 102kts
01-Dec-20 15:02 33.702931 -117.851083 163 1068ft 74kts
01-Dec-20 15:03 33.686417 -117.861872 209 336ft 66kts
01-Dec-20 15:04 33.677349 -117.866657 112 60ft 0kts
01-Dec-20 15:05 33.675774 -117.865348 188 60ft 17kts

Navigation Log

Ident Type
Flight plan parsing failed, navigation log unavailable